Time;durP1;ratioP1;P1;durP2;ratioP2;P2;SDS_P1;SDS_P2;PMS_P1;PMS_P2;Temp;Humidity;BMP_temperature;BMP_pressure;BME280_temperature;BME280_humidity;BME280_pressure;Samples;Min_cycle;Max_cycle;Signal;HPM_P1;HPM_P2
2023/07/30 11:13:15;;;;;;;10.20;3.53;;;16.10;99.90;;;;;;6132349;23;20033;-86
2023/07/30 11:16:25;;;;;;;;;;;;;;;;;;;;;
2023/07/30 11:23:46;;;;;;;;;;;;;;;;;;;;;
2023/07/30 12:10:11;;;;;;;10.50;2.30;;;19.90;99.90;;;;;;5844327;24;20075;-84
2023/07/30 12:13:42;;;;;;;10.10;2.28;;;20.00;99.90;;;;;;5798822;24;20030;-84
2023/07/30 12:17:20;;;;;;;13.00;2.45;;;20.50;99.90;;;;;;5795632;24;20104;-84
2023/07/30 12:30:13;;;;;;;11.88;2.10;;;21.20;99.90;;;;;;6065377;23;20022;-84
2023/07/30 12:32:48;;;;;;;9.82;2.40;;;20.90;99.90;;;;;;6041349;23;20054;-85
2023/07/30 12:35:19;;;;;;;8.50;2.05;;;21.00;99.90;;;;;;6156492;23;20532;-82
2023/07/30 12:37:45;;;;;;;8.13;1.92;;;21.10;99.90;;;;;;6155965;23;20020;-85
2023/07/30 12:40:11;;;;;;;6.60;1.83;;;21.30;99.90;;;;;;6155023;23;20027;-85
2023/07/30 12:42:37;;;;;;;10.05;2.17;;;21.30;99.90;;;;;;6182286;23;20072;-86
2023/07/30 12:45:03;;;;;;;8.20;2.10;;;21.50;99.90;;;;;;6156215;23;20485;-88
2023/07/30 12:47:32;;;;;;;9.68;2.25;;;21.90;99.90;;;;;;6153425;23;20013;-87
2023/07/30 12:51:12;;;;;;;9.23;2.30;;;22.20;99.90;;;;;;6147778;23;20015;-84
2023/07/30 12:53:40;;;;;;;10.50;2.13;;;22.20;99.90;;;;;;6157972;23;20057;-84
2023/07/30 12:56:06;;;;;;;9.15;2.13;;;22.30;99.90;;;;;;6156181;23;20454;-84
2023/07/30 12:58:32;;;;;;;8.48;1.90;;;22.70;99.90;;;;;;6156960;23;20017;-84
2023/07/30 13:00:58;;;;;;;8.15;2.22;;;22.50;99.90;;;;;;6181964;23;20075;-85
2023/07/30 13:03:23;;;;;;;9.70;2.20;;;22.10;99.90;;;;;;6155275;23;20013;-84
2023/07/30 13:05:49;;;;;;;9.65;2.33;;;22.00;99.90;;;;;;6156320;23;20017;-84
2023/07/30 13:08:17;;;;;;;7.95;2.15;;;21.70;99.90;;;;;;6184067;23;20013;-83
2023/07/30 13:10:48;;;;;;;8.77;1.90;;;21.60;99.90;;;;;;6158126;23;20151;-84
2023/07/30 13:13:32;;;;;;;7.03;1.80;;;21.30;99.90;;;;;;6185106;23;20027;-84
2023/07/30 13:16:01;;;;;;;7.97;2.03;;;20.90;99.90;;;;;;6157052;23;20028;-84
2023/07/30 13:18:32;;;;;;;8.75;1.90;;;20.70;99.90;;;;;;6156440;23;20032;-85
2023/07/30 13:20:57;;;;;;;8.60;2.10;;;20.60;99.90;;;;;;6157733;23;20100;-86
2023/07/30 13:23:26;;;;;;;7.88;2.03;;;20.20;99.90;;;;;;6157565;23;20111;-84
2023/07/30 13:25:51;;;;;;;9.25;2.10;;;19.90;99.90;;;;;;6158157;23;20088;-83
2023/07/30 13:28:17;;;;;;;10.77;2.25;;;19.70;99.90;;;;;;6158824;23;20055;-84
2023/07/30 13:30:42;;;;;;;9.38;2.08;;;19.60;99.90;;;;;;6156453;23;20068;-84
2023/07/30 13:33:08;;;;;;;9.25;2.10;;;19.60;99.90;;;;;;6184756;23;20009;-83
2023/07/30 13:35:34;;;;;;;10.93;2.40;;;19.60;99.90;;;;;;6157507;23;20025;-85
2023/07/30 13:37:59;;;;;;;10.93;2.22;;;19.50;99.90;;;;;;6157174;23;20017;-84
2023/07/30 13:40:46;;;;;;;10.13;2.38;;;19.70;99.90;;;;;;6158322;23;20017;-84
2023/07/30 13:43:11;;;;;;;8.55;2.65;;;19.70;99.90;;;;;;6158435;23;20017;-85
2023/07/30 13:45:52;;;;;;;9.60;2.40;;;20.50;99.90;;;;;;6182768;23;20024;-84
2023/07/30 13:48:24;;;;;;;10.13;2.30;;;21.00;99.90;;;;;;6183869;23;20013;-85
2023/07/30 13:51:05;;;;;;;12.50;2.55;;;21.30;99.90;;;;;;6182332;23;20135;-85
2023/07/30 13:54:01;;;;;;;9.20;2.10;;;21.50;99.90;;;;;;6183293;23;20021;-85
2023/07/30 13:56:28;;;;;;;9.63;2.42;;;21.60;99.90;;;;;;6168666;23;20017;-84
2023/07/30 13:59:11;;;;;;;7.80;1.90;;;21.60;99.90;;;;;;6151191;23;20167;-84
2023/07/30 14:01:46;;;;;;;10.35;2.97;;;22.00;99.90;;;;;;6127894;23;20021;-85
2023/07/30 14:04:21;;;;;;;9.55;2.45;;;22.00;99.90;;;;;;6130564;23;20023;-85
2023/07/30 14:06:53;;;;;;;9.73;2.38;;;22.50;99.90;;;;;;6129674;23;20014;-84
2023/07/30 14:09:19;;;;;;;11.10;2.30;;;22.40;99.90;;;;;;6130222;23;20013;-85
2023/07/30 14:11:46;;;;;;;11.20;2.65;;;22.00;99.90;;;;;;6129217;23;20830;-84
2023/07/30 14:14:12;;;;;;;11.23;2.70;;;21.60;99.90;;;;;;6156919;23;20295;-85
2023/07/30 14:16:37;;;;;;;9.65;2.20;;;21.30;99.90;;;;;;6130515;23;20024;-83
2023/07/30 14:19:03;;;;;;;9.50;2.42;;;21.40;99.90;;;;;;6155684;23;20103;-84
2023/07/30 14:21:29;;;;;;;10.02;2.42;;;21.70;99.90;;;;;;6130723;23;20021;-84
2023/07/30 14:23:54;;;;;;;8.35;1.90;;;21.90;99.90;;;;;;6154405;23;21038;-84
2023/07/30 14:26:20;;;;;;;8.30;1.90;;;22.10;99.90;;;;;;6128976;23;20021;-83
2023/07/30 14:28:46;;;;;;;7.55;1.92;;;22.20;99.90;;;;;;6130004;23;20018;-83
2023/07/30 14:31:11;;;;;;;8.45;2.13;;;21.80;99.90;;;;;;6130573;23;20453;-83
2023/07/30 14:33:37;;;;;;;9.82;2.00;;;21.50;99.90;;;;;;6128851;23;20049;-85
2023/07/30 14:36:04;;;;;;;11.65;2.33;;;21.10;99.90;;;;;;6155598;23;20017;-84
2023/07/30 14:38:31;;;;;;;11.15;2.42;;;20.70;99.90;;;;;;6130158;23;20345;-84
2023/07/30 14:40:59;;;;;;;8.80;2.22;;;20.30;99.90;;;;;;6128102;23;20022;-84
2023/07/30 14:43:40;;;;;;;9.20;2.05;;;19.60;99.90;;;;;;6155139;23;20024;-84
2023/07/30 14:46:06;;;;;;;8.15;2.15;;;19.10;99.90;;;;;;6129013;23;20088;-85
2023/07/30 14:48:32;;;;;;;8.48;2.30;;;18.20;99.90;;;;;;6126305;23;20507;-83
2023/07/30 14:50:58;;;;;;;7.38;2.17;;;17.80;99.90;;;;;;6124992;23;20093;-84
2023/07/30 14:53:24;;;;;;;7.95;2.10;;;17.70;99.90;;;;;;6153768;23;20018;-84
2023/07/30 14:55:52;;;;;;;7.90;2.10;;;17.70;99.90;;;;;;6150959;23;20103;-84
2023/07/30 14:58:18;;;;;;;8.25;1.83;;;17.90;99.90;;;;;;6127373;23;20752;-85
2023/07/30 15:00:50;;;;;;;9.45;2.33;;;18.20;99.90;;;;;;6153611;23;20013;-85
2023/07/30 15:03:24;;;;;;;7.00;2.00;;;18.50;99.90;;;;;;6129199;23;20067;-84
2023/07/30 15:05:50;;;;;;;6.68;1.77;;;18.80;99.90;;;;;;6128777;23;20018;-84
2023/07/30 15:08:16;;;;;;;7.63;2.10;;;19.20;99.90;;;;;;6130388;23;20013;-85
2023/07/30 15:10:42;;;;;;;9.50;2.20;;;19.60;99.90;;;;;;6129133;23;20315;-83
2023/07/30 15:13:07;;;;;;;9.13;2.05;;;19.90;99.90;;;;;;6128375;23;20522;-84
2023/07/30 15:15:33;;;;;;;10.23;2.13;;;20.00;99.90;;;;;;6127530;23;20017;-84
2023/07/30 15:17:59;;;;;;;8.20;2.38;;;20.00;99.90;;;;;;6155167;23;20021;-84
2023/07/30 15:20:25;;;;;;;8.32;2.08;;;20.00;99.90;;;;;;6155433;23;20090;-84
2023/07/30 15:22:51;;;;;;;8.00;2.10;;;20.30;99.90;;;;;;6152218;23;20028;-84
2023/07/30 15:25:17;;;;;;;8.60;2.03;;;20.50;99.90;;;;;;6128839;23;20092;-84
2023/07/30 15:27:43;;;;;;;9.13;1.95;;;20.70;99.90;;;;;;6154709;23;20093;-83
2023/07/30 15:30:09;;;;;;;7.43;2.00;;;20.70;99.90;;;;;;6127674;23;20476;-84
2023/07/30 15:32:41;;;;;;;8.00;1.92;;;20.60;99.90;;;;;;6153897;23;20100;-86
2023/07/30 15:35:07;;;;;;;7.68;1.85;;;20.60;99.90;;;;;;6155193;23;20461;-84
2023/07/30 15:37:33;;;;;;;7.88;1.80;;;20.60;99.90;;;;;;6129147;23;20048;-85
2023/07/30 15:39:59;;;;;;;8.65;1.80;;;20.70;99.90;;;;;;6129290;23;20026;-82
2023/07/30 15:42:24;;;;;;;7.38;1.80;;;21.00;99.90;;;;;;6129587;23;20434;-83
2023/07/30 15:44:50;;;;;;;8.90;1.80;;;21.00;99.90;;;;;;6127361;23;20033;-81
2023/07/30 15:47:15;;;;;;;8.65;1.63;;;21.00;99.90;;;;;;6154689;23;20017;-81
2023/07/30 15:49:44;;;;;;;11.13;2.00;;;21.20;99.90;;;;;;6127878;23;20021;-84
2023/07/30 15:52:10;;;;;;;8.63;1.85;;;21.20;99.90;;;;;;6154153;23;20053;-83
2023/07/30 15:54:37;;;;;;;7.53;2.00;;;21.20;99.90;;;;;;6154779;23;20025;-83
2023/07/30 15:57:05;;;;;;;5.53;1.67;;;21.20;99.90;;;;;;6128409;23;20021;-83
2023/07/30 15:59:32;;;;;;;5.93;1.80;;;21.20;99.90;;;;;;6129659;23;20021;-83
2023/07/30 16:01:58;;;;;;;8.82;1.80;;;21.00;99.90;;;;;;6155364;23;20017;-83
2023/07/30 16:04:24;;;;;;;6.57;1.90;;;20.90;99.90;;;;;;6128377;23;20017;-83
2023/07/30 16:06:51;;;;;;;7.00;1.70;;;20.80;99.90;;;;;;6155874;23;20018;-83
2023/07/30 16:09:16;;;;;;;6.97;1.67;;;20.60;99.90;;;;;;6129854;23;20076;-83
2023/07/30 16:11:42;;;;;;;8.30;1.80;;;20.50;99.90;;;;;;6127923;23;20014;-82
2023/07/30 16:14:08;;;;;;;10.52;2.13;;;20.70;99.90;;;;;;6155477;23;20041;-82
2023/07/30 16:16:36;;;;;;;8.10;1.80;;;20.80;99.90;;;;;;6129200;23;20017;-83
2023/07/30 16:19:01;;;;;;;6.25;1.75;;;20.80;99.90;;;;;;6155151;23;20064;-83
2023/07/30 16:21:27;;;;;;;6.25;1.75;;;20.80;99.90;;;;;;6155775;23;20041;-83
2023/07/30 16:23:53;;;;;;;7.03;1.70;;;20.90;99.90;;;;;;6129114;23;20662;-82
2023/07/30 16:26:18;;;;;;;8.20;1.98;;;20.80;99.90;;;;;;6128182;23;20404;-83
2023/07/30 16:28:44;;;;;;;7.22;1.92;;;20.70;99.90;;;;;;6129252;23;20411;-82
2023/07/30 16:31:10;;;;;;;9.63;1.98;;;20.70;99.90;;;;;;6155605;23;20096;-82
2023/07/30 16:33:36;;;;;;;9.82;2.10;;;20.80;99.90;;;;;;6154752;23;20080;-82
2023/07/30 16:36:04;;;;;;;11.73;2.53;;;20.80;99.90;;;;;;6156080;23;20024;-83
2023/07/30 16:38:32;;;;;;;8.48;1.88;;;20.70;99.90;;;;;;6155812;23;20014;-82
2023/07/30 16:41:00;;;;;;;7.20;2.15;;;20.50;99.90;;;;;;6154601;23;20021;-82
2023/07/30 16:43:25;;;;;;;9.55;2.10;;;20.50;99.90;;;;;;6129499;23;20036;-82
2023/07/30 16:45:58;;;;;;;8.48;1.98;;;20.40;99.90;;;;;;6154501;23;20100;-82
2023/07/30 16:48:23;;;;;;;6.82;1.83;;;20.30;99.90;;;;;;6128427;23;20076;-82
2023/07/30 16:50:49;;;;;;;10.27;2.15;;;20.30;99.90;;;;;;6128177;23;20460;-83
2023/07/30 16:53:14;;;;;;;8.05;1.92;;;20.30;99.90;;;;;;6154596;23;20014;-83
2023/07/30 16:55:41;;;;;;;8.45;1.95;;;20.50;99.90;;;;;;6128232;23;20092;-82
2023/07/30 16:58:06;;;;;;;10.70;2.10;;;20.80;99.90;;;;;;6129083;23;20503;-83
2023/07/30 17:00:32;;;;;;;8.07;2.10;;;21.00;99.90;;;;;;6154922;23;20017;-83
2023/07/30 17:02:57;;;;;;;9.98;2.10;;;21.00;99.90;;;;;;6128702;23;20445;-82
2023/07/30 17:05:24;;;;;;;9.07;2.10;;;20.70;99.90;;;;;;6128947;23;20477;-82
2023/07/30 17:07:51;;;;;;;7.43;1.80;;;20.50;99.90;;;;;;6153657;23;20013;-82
2023/07/30 17:10:17;;;;;;;11.48;2.25;;;20.60;99.90;;;;;;6154518;23;20018;-83
2023/07/30 17:12:42;;;;;;;8.32;2.15;;;20.50;99.90;;;;;;6128344;23;20104;-83
2023/07/30 17:15:09;;;;;;;8.13;2.28;;;20.40;99.90;;;;;;6127179;23;20025;-82
2023/07/30 17:17:35;;;;;;;10.38;2.22;;;20.20;99.90;;;;;;6128362;23;20389;-83
2023/07/30 17:20:00;;;;;;;10.32;2.35;;;20.00;99.90;;;;;;6155403;23;20017;-83
2023/07/30 17:22:26;;;;;;;9.90;2.10;;;19.90;99.90;;;;;;6153283;23;20013;-82
2023/07/30 17:24:55;;;;;;;13.25;1.95;;;19.80;99.90;;;;;;6127960;23;20465;-82
2023/07/30 17:27:21;;;;;;;8.52;2.10;;;19.80;99.90;;;;;;6128494;23;20025;-82
2023/07/30 17:29:46;;;;;;;9.55;2.03;;;19.60;99.90;;;;;;6126995;23;20014;-81
2023/07/30 17:32:12;;;;;;;9.68;2.28;;;19.50;99.90;;;;;;6128356;23;20023;-82
2023/07/30 17:34:38;;;;;;;9.23;2.60;;;19.50;99.90;;;;;;6127092;23;20014;-82
2023/07/30 17:37:03;;;;;;;10.80;2.45;;;19.50;99.90;;;;;;6151678;23;20497;-82
2023/07/30 17:39:29;;;;;;;9.15;2.47;;;19.50;99.90;;;;;;6154235;23;20032;-82
2023/07/30 17:41:55;;;;;;;8.75;2.60;;;19.40;99.90;;;;;;6153937;23;20014;-82
2023/07/30 17:44:20;;;;;;;12.77;2.75;;;19.40;99.90;;;;;;6126803;23;20118;-82
2023/07/30 17:46:46;;;;;;;11.93;2.58;;;19.30;99.90;;;;;;6151795;23;20017;-82
2023/07/30 17:49:11;;;;;;;11.10;2.35;;;19.30;99.90;;;;;;6153512;23;20024;-82
2023/07/30 17:51:37;;;;;;;12.23;2.80;;;19.20;99.90;;;;;;6152806;23;20014;-85
2023/07/30 17:54:03;;;;;;;11.15;2.50;;;19.20;99.90;;;;;;6127456;23;20025;-84
2023/07/30 17:56:31;;;;;;;9.57;2.33;;;19.20;99.90;;;;;;6127401;23;20014;-84
2023/07/30 17:58:57;;;;;;;8.32;2.00;;;19.20;99.90;;;;;;6155417;23;20014;-85
2023/07/30 18:01:23;;;;;;;10.20;2.50;;;19.20;99.90;;;;;;6128124;23;20040;-85
2023/07/30 18:03:51;;;;;;;8.10;2.38;;;19.10;99.90;;;;;;6153515;23;20173;-85
2023/07/30 18:06:17;;;;;;;11.32;2.50;;;19.20;99.90;;;;;;6128685;23;20049;-85
2023/07/30 18:08:42;;;;;;;10.50;2.50;;;19.10;99.90;;;;;;6154706;23;20010;-84
2023/07/30 18:11:08;;;;;;;11.00;2.53;;;19.20;99.90;;;;;;6127775;23;20026;-85
2023/07/30 18:13:34;;;;;;;11.52;2.67;;;19.10;99.90;;;;;;6128393;23;20041;-85
2023/07/30 18:16:00;;;;;;;11.80;3.00;;;19.00;99.90;;;;;;6154477;23;20048;-84
2023/07/30 18:18:26;;;;;;;11.73;2.42;;;18.90;99.90;;;;;;6154347;23;20067;-85
2023/07/30 18:20:52;;;;;;;11.65;2.75;;;18.90;99.90;;;;;;6128335;23;20029;-84
2023/07/30 18:23:17;;;;;;;9.27;2.40;;;19.00;99.90;;;;;;6128712;23;20025;-84
2023/07/30 18:25:43;;;;;;;14.07;2.80;;;18.90;99.90;;;;;;6152917;23;20026;-85
2023/07/30 18:28:09;;;;;;;11.77;2.47;;;18.90;99.90;;;;;;6155361;23;20076;-85
2023/07/30 18:30:36;;;;;;;12.90;2.75;;;18.80;99.90;;;;;;6127822;23;20010;-84
2023/07/30 18:33:02;;;;;;;10.43;2.42;;;18.80;99.90;;;;;;6150710;23;20077;-84
2023/07/30 18:35:28;;;;;;;11.30;2.67;;;18.80;99.90;;;;;;6125409;23;20017;-85
2023/07/30 18:37:53;;;;;;;12.05;2.58;;;18.80;99.90;;;;;;6152475;23;20052;-86
2023/07/30 18:40:19;;;;;;;11.10;2.60;;;18.60;99.90;;;;;;6152120;23;20103;-85
2023/07/30 18:42:48;;;;;;;11.55;2.78;;;18.60;99.90;;;;;;6153482;23;20020;-85
2023/07/30 18:45:16;;;;;;;12.15;2.85;;;18.50;99.90;;;;;;6155277;23;20022;-85
2023/07/30 18:47:42;;;;;;;8.98;2.60;;;18.50;99.90;;;;;;6127298;23;20072;-85
2023/07/30 18:50:08;;;;;;;12.45;2.63;;;18.40;99.90;;;;;;6130992;23;20029;-85
2023/07/30 18:52:34;;;;;;;12.60;3.00;;;18.40;99.90;;;;;;6157602;23;20049;-86
2023/07/30 18:54:59;;;;;;;12.50;2.80;;;18.30;99.90;;;;;;6156439;23;20024;-85
2023/07/30 18:57:25;;;;;;;13.35;2.85;;;18.30;99.90;;;;;;6156938;23;20016;-86
2023/07/30 18:59:51;;;;;;;12.25;2.90;;;18.20;99.90;;;;;;6153690;23;20017;-84
2023/07/30 19:02:17;;;;;;;12.20;3.03;;;18.10;99.90;;;;;;6156853;23;20018;-84
2023/07/30 19:04:42;;;;;;;15.77;3.17;;;18.10;99.90;;;;;;6156253;23;20077;-84
2023/07/30 19:07:09;;;;;;;12.15;3.03;;;18.00;99.90;;;;;;6155677;23;20048;-84
2023/07/30 19:09:34;;;;;;;11.15;2.90;;;18.00;99.90;;;;;;6129653;23;20093;-85
2023/07/30 19:12:00;;;;;;;11.95;3.22;;;18.00;99.90;;;;;;6129605;23;20072;-84
2023/07/30 19:14:26;;;;;;;15.20;2.90;;;18.00;99.90;;;;;;6155981;23;20017;-84
2023/07/30 19:16:52;;;;;;;9.77;2.67;;;17.90;99.90;;;;;;6129732;23;20021;-84
2023/07/30 19:19:17;;;;;;;9.30;2.78;;;17.90;99.90;;;;;;6129850;23;20025;-84
2023/07/30 19:21:43;;;;;;;13.50;3.35;;;17.80;99.90;;;;;;6129472;23;20502;-84
2023/07/30 19:24:10;;;;;;;14.73;3.25;;;17.90;99.90;;;;;;6156465;23;20026;-84
2023/07/30 19:26:35;;;;;;;16.20;3.10;;;17.80;99.90;;;;;;6129855;23;20088;-84
2023/07/30 19:29:01;;;;;;;11.93;3.22;;;17.80;99.90;;;;;;6129195;23;20060;-85
2023/07/30 19:31:28;;;;;;;10.43;2.92;;;17.80;99.90;;;;;;6129824;23;20018;-84
2023/07/30 19:34:09;;;;;;;12.38;3.22;;;17.80;99.90;;;;;;6155987;23;20021;-84
2023/07/30 19:36:36;;;;;;;13.23;3.90;;;17.70;99.90;;;;;;6129285;23;20089;-86
2023/07/30 19:39:14;;;;;;;12.38;2.95;;;17.70;99.90;;;;;;6129971;23;20013;-87
2023/07/30 19:41:50;;;;;;;;;;;;;;;;;;;;;
2023/07/30 19:44:40;;;;;;;13.05;3.00;;;17.60;99.90;;;;;;6155451;23;20029;-87
2023/07/30 19:47:09;;;;;;;11.18;2.95;;;17.70;99.90;;;;;;6129192;23;20068;-85
2023/07/30 21:03:08;;;;;;;;;;;;;;;;;;;;;
2023/07/30 21:06:58;;;;;;;10.30;3.05;;;17.20;99.90;;;;;;6041694;23;20024;-89
2023/07/30 23:47:04;;;;;;;9.60;3.08;;;15.50;99.90;;;;;;6125059;23;20032;-92
2023/07/30 23:52:13;;;;;;;8.35;2.85;;;15.30;99.90;;;;;;6184274;23;20021;-92
2023/07/30 23:57:25;;;;;;;8.10;2.60;;;15.20;99.90;;;;;;6125842;23;20021;-90
